Time;durP1;ratioP1;P1;durP2;ratioP2;P2;SDS_P1;SDS_P2;PMS_P1;PMS_P2;Temp;Humidity;BMP_temperature;BMP_pressure;BME280_temperature;BME280_humidity;BME280_pressure;Samples;Min_cycle;Max_cycle;Signal;HPM_P1;HPM_P2
2023/10/17 00:00:28;;;;;;;2.42;2.33;;;3.50;99.90;;;;;;6250085;23;20168;-78
2023/10/17 00:02:56;;;;;;;1.27;1.25;;;3.70;99.90;;;;;;6250321;23;20166;-79
2023/10/17 00:05:23;;;;;;;4.38;3.97;;;3.70;99.90;;;;;;6250246;23;20225;-77
2023/10/17 00:07:51;;;;;;;1.95;1.85;;;3.70;99.90;;;;;;6250584;23;20182;-78
2023/10/17 00:10:19;;;;;;;2.97;2.78;;;3.70;99.90;;;;;;6251052;23;20504;-80
2023/10/17 00:13:06;;;;;;;1.40;1.30;;;3.80;99.90;;;;;;6251206;23;20212;-80
2023/10/17 00:15:37;;;;;;;1.98;1.88;;;3.80;99.90;;;;;;6260458;23;20197;-79
2023/10/17 00:18:15;;;;;;;2.95;2.75;;;3.90;99.90;;;;;;6271851;23;20261;-78
2023/10/17 00:20:43;;;;;;;3.78;3.53;;;4.00;99.90;;;;;;6267776;23;20186;-78
2023/10/17 00:23:15;;;;;;;6.93;3.00;;;4.00;99.90;;;;;;6262555;23;20178;-78
2023/10/17 00:25:51;;;;;;;1.33;1.33;;;4.00;99.90;;;;;;6250829;23;20165;-77
2023/10/17 00:28:20;;;;;;;3.10;2.90;;;4.10;99.90;;;;;;6251198;23;20173;-79
2023/10/17 00:30:50;;;;;;;1.50;1.50;;;4.10;99.90;;;;;;6257434;23;20177;-79
2023/10/17 00:33:23;;;;;;;2.60;2.40;;;4.10;99.90;;;;;;6234721;23;20170;-79
2023/10/17 00:35:54;;;;;;;3.20;3.10;;;4.10;99.90;;;;;;6229141;23;20528;-79
2023/10/17 00:38:22;;;;;;;3.00;2.75;;;3.90;99.90;;;;;;6254973;23;20228;-80
2023/10/17 00:40:51;;;;;;;3.72;3.08;;;3.90;99.90;;;;;;6254696;23;20267;-79
2023/10/17 00:43:19;;;;;;;2.05;1.95;;;3.90;99.90;;;;;;6225184;23;20240;-77
2023/10/17 00:45:47;;;;;;;5.38;3.97;;;3.80;99.90;;;;;;6252386;23;20197;-78
2023/10/17 00:48:27;;;;;;;1.48;1.40;;;3.80;99.90;;;;;;6251342;23;20186;-79
2023/10/17 00:51:08;;;;;;;1.00;1.00;;;3.80;99.90;;;;;;6225060;23;20171;-77
2023/10/17 00:53:39;;;;;;;3.03;2.92;;;3.70;99.90;;;;;;6250106;23;20177;-78
2023/10/17 00:56:08;;;;;;;4.13;3.85;;;3.70;99.90;;;;;;6249920;23;20208;-79
2023/10/17 00:58:35;;;;;;;1.55;1.45;;;3.60;99.90;;;;;;6251341;23;20572;-80
2023/10/17 01:01:09;;;;;;;1.40;1.30;;;3.60;99.90;;;;;;6255298;23;20447;-77
2023/10/17 01:03:41;;;;;;;1.77;1.67;;;3.60;99.90;;;;;;6253757;23;20170;-79
2023/10/17 01:08:57;;;;;;;0.90;0.90;;;3.50;99.90;;;;;;6250477;23;20364;-77
2023/10/17 01:11:27;;;;;;;2.13;2.03;;;3.50;99.90;;;;;;6249854;23;20542;-79
2023/10/17 01:13:57;;;;;;;2.28;2.15;;;3.50;99.90;;;;;;6224036;23;20212;-77
2023/10/17 01:16:25;;;;;;;3.15;3.05;;;3.40;99.90;;;;;;6249937;23;20265;-79
2023/10/17 01:18:56;;;;;;;1.45;1.35;;;3.40;99.90;;;;;;6249331;23;20695;-78
2023/10/17 01:21:23;;;;;;;2.15;2.05;;;3.40;99.90;;;;;;6249930;23;20590;-76
2023/10/17 01:23:51;;;;;;;1.40;1.17;;;3.30;99.90;;;;;;6249369;23;20189;-77
2023/10/17 01:26:23;;;;;;;1.27;1.23;;;3.30;99.90;;;;;;6249151;23;20184;-79
2023/10/17 01:28:52;;;;;;;3.50;3.20;;;3.30;99.90;;;;;;6249073;23;20208;-80
2023/10/17 01:31:23;;;;;;;0.60;0.60;;;3.20;99.90;;;;;;6249688;23;20190;-79
2023/10/17 01:33:52;;;;;;;3.58;3.28;;;3.20;99.90;;;;;;6249054;23;20224;-79
2023/10/17 01:36:19;;;;;;;1.50;1.50;;;3.10;99.90;;;;;;6249654;23;20177;-78
2023/10/17 01:38:49;;;;;;;1.58;1.50;;;3.10;99.90;;;;;;6248945;23;20209;-78
2023/10/17 01:41:20;;;;;;;2.63;2.15;;;3.20;99.90;;;;;;6249089;23;20186;-77
2023/10/17 01:43:48;;;;;;;3.55;3.08;;;3.10;99.90;;;;;;6249063;23;20192;-77
2023/10/17 01:46:22;;;;;;;1.98;1.88;;;3.00;99.90;;;;;;6248678;23;20184;-78
2023/10/17 01:48:53;;;;;;;4.60;2.55;;;2.70;99.90;;;;;;6249320;23;20166;-78
2023/10/17 01:51:24;;;;;;;2.15;1.90;;;2.70;99.90;;;;;;6249577;23;20591;-78
2023/10/17 01:53:51;;;;;;;2.97;2.78;;;2.70;99.90;;;;;;6222742;23;20189;-78
2023/10/17 01:56:25;;;;;;;2.85;2.17;;;2.70;99.90;;;;;;6223154;23;20231;-80
2023/10/17 01:58:55;;;;;;;1.25;1.25;;;2.60;99.90;;;;;;6249041;23;20727;-80
2023/10/17 02:01:29;;;;;;;7.40;4.00;;;2.60;99.90;;;;;;6249020;23;20201;-79
2023/10/17 02:04:04;;;;;;;3.72;3.47;;;2.60;99.90;;;;;;6249420;23;20169;-79
2023/10/17 02:06:33;;;;;;;2.28;2.17;;;2.70;99.90;;;;;;6248865;23;20227;-80
2023/10/17 02:09:17;;;;;;;1.75;1.65;;;2.70;99.90;;;;;;6250026;23;20417;-80
2023/10/17 02:11:44;;;;;;;4.45;3.13;;;2.70;99.90;;;;;;6249457;23;20365;-79
2023/10/17 02:14:11;;;;;;;1.38;1.38;;;2.70;99.90;;;;;;6249308;23;20455;-79
2023/10/17 02:16:38;;;;;;;2.22;2.10;;;2.70;99.90;;;;;;6249268;23;20704;-81
2023/10/17 02:19:07;;;;;;;3.00;2.80;;;2.70;99.90;;;;;;6223847;23;20214;-78
2023/10/17 02:21:43;;;;;;;2.28;2.10;;;2.70;99.90;;;;;;6251599;23;20197;-77
2023/10/17 02:24:11;;;;;;;1.55;1.45;;;2.60;99.90;;;;;;6252765;23;20176;-78
2023/10/17 02:26:54;;;;;;;0.73;0.73;;;2.60;99.90;;;;;;6248949;23;20185;-78
2023/10/17 02:29:26;;;;;;;1.73;1.63;;;2.60;99.90;;;;;;6249240;23;20239;-78
2023/10/17 02:31:54;;;;;;;2.00;1.80;;;2.60;99.90;;;;;;6248964;23;20232;-79
2023/10/17 02:34:29;;;;;;;5.07;2.65;;;2.60;99.90;;;;;;6247957;23;20470;-78
2023/10/17 02:37:00;;;;;;;0.98;0.98;;;2.60;99.90;;;;;;6248419;23;20360;-78
2023/10/17 02:39:27;;;;;;;3.20;2.97;;;2.60;99.90;;;;;;6249444;23;20168;-79
2023/10/17 02:42:06;;;;;;;7.43;1.85;;;2.50;99.90;;;;;;6248790;23;20184;-77
2023/10/17 02:44:40;;;;;;;4.82;4.45;;;2.60;99.90;;;;;;6248693;23;20196;-77
2023/10/17 02:47:11;;;;;;;3.17;2.83;;;2.50;99.90;;;;;;6249125;23;20213;-77
2023/10/17 02:49:39;;;;;;;11.75;1.73;;;2.40;99.90;;;;;;6222229;23;20185;-78
2023/10/17 02:52:06;;;;;;;4.47;4.07;;;2.40;99.90;;;;;;6249335;23;20185;-78
2023/10/17 02:54:59;;;;;;;10.73;4.68;;;2.50;99.90;;;;;;6248725;23;20186;-78
2023/10/17 02:57:24;;;;;;;2.00;1.90;;;2.50;99.90;;;;;;6249258;23;20213;-81
2023/10/17 02:59:57;;;;;;;1.85;1.65;;;2.50;99.90;;;;;;6198416;23;20186;-77
2023/10/17 03:02:36;;;;;;;2.25;2.17;;;2.50;99.90;;;;;;6248787;23;20176;-78
2023/10/17 03:05:11;;;;;;;2.10;1.98;;;2.50;99.90;;;;;;6250592;23;20175;-78
2023/10/17 03:07:42;;;;;;;3.63;3.30;;;2.50;99.90;;;;;;6249517;23;20222;-81
2023/10/17 03:10:20;;;;;;;4.50;2.90;;;2.40;99.90;;;;;;6249315;23;20191;-80
2023/10/17 03:12:55;;;;;;;2.35;2.25;;;2.50;99.90;;;;;;6248794;23;20179;-80
2023/10/17 03:15:29;;;;;;;2.08;1.98;;;2.50;99.90;;;;;;6249335;23;20195;-80
2023/10/17 03:18:00;;;;;;;2.25;2.15;;;2.50;99.90;;;;;;6249006;23;20201;-79
2023/10/17 03:20:40;;;;;;;2.53;2.42;;;2.50;99.90;;;;;;6249329;23;20176;-80
2023/10/17 03:23:11;;;;;;;2.13;2.03;;;2.60;99.90;;;;;;6249328;23;20207;-81
2023/10/17 03:25:38;;;;;;;7.25;3.95;;;2.50;99.90;;;;;;6256569;23;20176;-79
2023/10/17 03:28:09;;;;;;;2.30;2.17;;;2.60;99.90;;;;;;6256355;23;20197;-80
2023/10/17 03:30:36;;;;;;;4.22;3.67;;;2.70;99.90;;;;;;6249468;23;20182;-80
2023/10/17 03:33:08;;;;;;;3.72;3.40;;;2.70;99.90;;;;;;6249958;23;20196;-79
2023/10/17 03:35:36;;;;;;;3.80;2.45;;;2.70;99.90;;;;;;6223579;23;20195;-82
2023/10/17 03:38:03;;;;;;;2.53;2.40;;;2.60;99.90;;;;;;6226352;23;20208;-81
2023/10/17 03:40:40;;;;;;;4.32;3.05;;;2.60;99.90;;;;;;6226484;23;20184;-80
2023/10/17 03:43:14;;;;;;;2.60;2.45;;;2.60;99.90;;;;;;6250448;23;20201;-81
2023/10/17 03:46:04;;;;;;;2.95;2.42;;;2.70;99.90;;;;;;6251282;23;20173;-79
2023/10/17 03:48:41;;;;;;;5.78;3.63;;;2.80;99.90;;;;;;6223393;23;20165;-80
2023/10/17 03:51:10;;;;;;;2.35;2.17;;;2.90;99.90;;;;;;6223587;23;20173;-79
2023/10/17 03:53:47;;;;;;;2.90;2.08;;;2.90;99.90;;;;;;6248060;23;20185;-78
2023/10/17 03:56:23;;;;;;;5.40;4.95;;;2.90;99.90;;;;;;6249489;23;20162;-77
2023/10/17 03:59:16;;;;;;;3.38;3.17;;;2.90;99.90;;;;;;6247627;23;20193;-78
2023/10/17 04:01:47;;;;;;;3.03;2.15;;;3.00;99.90;;;;;;6221872;23;20291;-80
2023/10/17 04:04:35;;;;;;;3.85;3.58;;;3.00;99.90;;;;;;6251005;23;20169;-79
2023/10/17 04:07:06;;;;;;;1.83;1.75;;;3.00;99.90;;;;;;6249820;23;20177;-80
2023/10/17 04:12:23;;;;;;;1.35;1.35;;;3.00;99.90;;;;;;6255711;23;20466;-79
2023/10/17 04:14:54;;;;;;;1.77;1.67;;;3.20;99.90;;;;;;6255011;23;20170;-79
2023/10/17 04:17:27;;;;;;;1.63;1.48;;;3.20;99.90;;;;;;6249787;23;20201;-78
2023/10/17 04:19:58;;;;;;;2.40;2.30;;;3.10;99.90;;;;;;6224100;23;20161;-77
2023/10/17 04:22:29;;;;;;;2.22;2.13;;;3.20;99.90;;;;;;6250743;23;20622;-77
2023/10/17 04:25:00;;;;;;;2.20;2.10;;;3.20;99.90;;;;;;6251560;23;20175;-79
2023/10/17 04:27:34;;;;;;;2.00;1.95;;;3.20;99.90;;;;;;6250837;23;20422;-79
2023/10/17 04:30:09;;;;;;;7.05;3.22;;;3.30;99.90;;;;;;6257428;23;20197;-78
2023/10/17 04:32:38;;;;;;;4.50;4.25;;;3.40;99.90;;;;;;6252127;23;20171;-80
2023/10/17 04:35:07;;;;;;;2.15;2.05;;;3.40;99.90;;;;;;6251865;23;20245;-79
2023/10/17 04:37:37;;;;;;;1.23;1.23;;;3.40;99.90;;;;;;6260709;23;20226;-79
2023/10/17 04:40:28;;;;;;;2.08;1.98;;;3.40;99.90;;;;;;6273505;23;20166;-78
2023/10/17 04:43:12;;;;;;;2.05;1.88;;;3.40;99.90;;;;;;6272612;22;20197;-80
2023/10/17 04:45:44;;;;;;;1.83;1.08;;;3.40;99.90;;;;;;6265873;23;20238;-79
2023/10/17 04:48:11;;;;;;;1.35;1.25;;;3.50;99.90;;;;;;6251258;23;20169;-80
2023/10/17 04:50:44;;;;;;;4.00;3.70;;;3.50;99.90;;;;;;6251301;23;20186;-78
2023/10/17 04:53:19;;;;;;;2.58;2.47;;;3.60;99.90;;;;;;6249893;23;20399;-79
2023/10/17 04:58:56;;;;;;;6.13;5.63;;;3.70;99.90;;;;;;6127369;23;20214;-81
2023/10/17 05:01:41;;;;;;;6.43;4.95;;;3.70;99.90;;;;;;6231440;23;20244;-80
2023/10/17 05:04:19;;;;;;;2.88;2.78;;;3.60;99.90;;;;;;6249909;23;20192;-80
2023/10/17 06:16:49;;;;;;;0.95;0.95;;;3.70;99.90;;;;;;6250570;23;20181;-80
2023/10/17 06:16:51;;;;;;;23.80;14.57;;;3.60;99.90;;;;;;6250057;23;20218;-81
2023/10/17 06:17:24;;;;;;;1.50;1.40;;;4.30;99.90;;;;;;6250261;23;20333;-81
2023/10/17 06:19:58;;;;;;;2.63;2.47;;;4.50;99.90;;;;;;6223184;23;20285;-77
2023/10/17 06:30:28;;;;;;;4.28;3.97;;;4.60;99.90;;;;;;6249711;23;20194;-79
2023/10/17 06:35:52;;;;;;;3.05;2.85;;;4.80;99.90;;;;;;6248132;23;20168;-80
2023/10/17 06:38:36;;;;;;;2.20;2.10;;;4.90;99.90;;;;;;6248171;23;20764;-79
2023/10/17 06:41:14;;;;;;;0.40;0.40;;;4.90;99.90;;;;;;6248772;23;20168;-81
2023/10/17 06:43:46;;;;;;;1.73;1.63;;;4.90;99.90;;;;;;6252241;23;20518;-81
2023/10/17 06:46:24;;;;;;;4.05;3.65;;;4.90;99.90;;;;;;6251751;23;20456;-79
2023/10/17 06:49:07;;;;;;;6.45;5.95;;;5.10;99.90;;;;;;6249097;23;20174;-80
2023/10/17 06:51:39;;;;;;;4.20;3.90;;;5.20;99.90;;;;;;6248380;23;20217;-80
2023/10/17 06:54:07;;;;;;;3.35;3.08;;;5.20;99.90;;;;;;6247425;23;20202;-80
2023/10/17 06:56:44;;;;;;;3.97;3.67;;;5.30;99.90;;;;;;6247582;23;20183;-80
2023/10/17 06:59:24;;;;;;;1.65;1.55;;;5.40;99.90;;;;;;6248672;23;20207;-79
2023/10/17 07:02:03;;;;;;;2.83;2.63;;;5.50;99.90;;;;;;6248527;23;20227;-78
2023/10/17 07:04:32;;;;;;;2.20;2.05;;;5.70;99.90;;;;;;6248094;23;20174;-79
2023/10/17 07:07:03;;;;;;;3.65;3.33;;;5.80;99.90;;;;;;6222116;23;20179;-78
2023/10/17 07:09:38;;;;;;;7.75;4.25;;;6.10;99.90;;;;;;6223799;23;20265;-81
2023/10/17 07:12:13;;;;;;;3.40;3.13;;;6.10;99.90;;;;;;6222485;23;20169;-79
2023/10/17 07:14:41;;;;;;;3.53;3.42;;;6.20;99.90;;;;;;6247348;23;20183;-79
2023/10/17 07:17:32;;;;;;;3.70;3.53;;;6.30;99.90;;;;;;6248654;23;20184;-79
2023/10/17 07:20:00;;;;;;;1.33;1.23;;;6.50;99.90;;;;;;6247732;23;20237;-79
2023/10/17 07:22:37;;;;;;;2.13;2.03;;;6.60;99.90;;;;;;6222009;23;20175;-79
2023/10/17 07:25:14;;;;;;;1.45;1.45;;;6.70;99.90;;;;;;6247535;23;20213;-78
2023/10/17 07:27:43;;;;;;;2.45;2.25;;;6.70;99.90;;;;;;6247168;23;20168;-80
2023/10/17 07:30:24;;;;;;;1.75;1.65;;;6.80;99.90;;;;;;6221803;23;20247;-81
2023/10/17 07:32:54;;;;;;;0.88;0.88;;;7.00;99.90;;;;;;6247539;23;20195;-80
2023/10/17 07:35:24;;;;;;;2.08;1.98;;;7.10;99.90;;;;;;6247271;23;20211;-79
2023/10/17 07:37:55;;;;;;;1.52;1.42;;;7.00;99.90;;;;;;6250049;23;20191;-79
2023/10/17 07:40:31;;;;;;;1.60;1.50;;;7.30;99.90;;;;;;6248811;23;20199;-79
2023/10/17 07:43:00;;;;;;;2.00;1.88;;;7.30;99.90;;;;;;6249492;23;20254;-79
2023/10/17 07:45:38;;;;;;;1.00;1.00;;;7.40;99.90;;;;;;6251135;23;20290;-79
2023/10/17 07:48:24;;;;;;;0.50;0.50;;;7.50;99.90;;;;;;6250229;23;20174;-78
2023/10/17 07:50:54;;;;;;;2.60;2.42;;;7.70;99.90;;;;;;6252636;23;20229;-80
2023/10/17 07:53:22;;;;;;;1.90;1.80;;;7.70;99.90;;;;;;6266359;23;20183;-77
2023/10/17 07:56:03;;;;;;;1.65;1.60;;;7.60;99.90;;;;;;6256144;23;20243;-79
2023/10/17 07:58:45;;;;;;;0.70;0.63;;;7.60;99.90;;;;;;6251955;23;20195;-78
2023/10/17 08:01:16;;;;;;;1.35;1.35;;;7.70;99.90;;;;;;6250495;23;20160;-78
2023/10/17 08:03:54;;;;;;;1.90;1.77;;;7.80;99.90;;;;;;6249644;23;20387;-81
2023/10/17 08:06:28;;;;;;;1.65;1.55;;;8.00;99.90;;;;;;6250559;23;20444;-82
2023/10/17 08:08:58;;;;;;;4.72;4.22;;;8.00;99.90;;;;;;6251581;23;20238;-80
2023/10/17 08:11:26;;;;;;;2.63;2.45;;;8.10;99.90;;;;;;6254911;23;20226;-80
2023/10/17 08:14:08;;;;;;;3.28;3.17;;;8.40;99.90;;;;;;6268112;23;20210;-80
2023/10/17 08:16:48;;;;;;;1.88;1.77;;;8.60;99.90;;;;;;6258456;23;20221;-82
2023/10/17 08:19:23;;;;;;;4.68;4.25;;;8.60;99.90;;;;;;6250512;23;20195;-83
2023/10/17 08:24:26;;;;;;;1.75;1.65;;;8.70;99.90;;;;;;6250775;23;20184;-80
2023/10/17 08:27:13;;;;;;;1.52;1.52;;;8.70;99.90;;;;;;6260245;22;20172;-79
2023/10/17 08:32:38;;;;;;;1.02;1.02;;;9.00;99.90;;;;;;6251592;23;20195;-81
2023/10/17 08:35:17;;;;;;;0.85;0.85;;;8.50;99.90;;;;;;6252071;23;20428;-85
2023/10/17 08:37:44;;;;;;;1.58;1.55;;;8.90;99.90;;;;;;6252621;23;20391;-82
2023/10/17 08:43:01;;;;;;;2.47;2.38;;;9.30;99.90;;;;;;6249406;23;20198;-81
2023/10/17 08:45:37;;;;;;;0.70;0.70;;;9.20;99.90;;;;;;6223624;23;20179;-82
2023/10/17 08:48:09;;;;;;;1.15;1.15;;;9.20;99.90;;;;;;6250503;23;20171;-81
2023/10/17 08:50:39;;;;;;;1.25;1.25;;;9.30;99.90;;;;;;6223532;23;20172;-81
2023/10/17 08:55:44;;;;;;;0.93;0.93;;;9.30;99.90;;;;;;6250779;23;20183;-80
2023/10/17 08:58:14;;;;;;;1.75;1.65;;;9.20;99.90;;;;;;6254256;23;20199;-80
2023/10/17 09:03:23;;;;;;;0.80;0.80;;;9.30;99.90;;;;;;6273144;22;20182;-81
2023/10/17 09:05:58;;;;;;;1.60;1.50;;;9.70;99.90;;;;;;6272224;22;20152;-79
2023/10/17 09:08:45;;;;;;;4.68;4.32;;;9.90;99.90;;;;;;6262439;22;20171;-79
2023/10/17 09:11:15;;;;;;;2.20;2.10;;;10.00;99.90;;;;;;6251496;23;20210;-80
2023/10/17 09:14:11;;;;;;;1.27;1.17;;;10.10;99.90;;;;;;6250500;23;20175;-80
2023/10/17 09:16:34;;;;;;;2.28;2.17;;;10.30;99.90;;;;;;6249332;23;20225;-79
2023/10/17 09:19:10;;;;;;;1.23;1.23;;;10.30;99.90;;;;;;6250529;23;20192;-80
2023/10/17 09:21:43;;;;;;;2.38;2.28;;;10.60;99.90;;;;;;6248895;23;20168;-79
2023/10/17 09:24:37;;;;;;;1.02;1.02;;;10.60;99.90;;;;;;6223215;23;20174;-79
2023/10/17 09:27:06;;;;;;;2.10;2.00;;;10.50;99.90;;;;;;6222771;23;20213;-79
2023/10/17 09:29:50;;;;;;;0.80;0.80;;;10.20;99.90;;;;;;6248894;23;20266;-78
2023/10/17 09:32:42;;;;;;;1.15;1.15;;;10.10;99.90;;;;;;6250250;23;20360;-78
2023/10/17 09:35:13;;;;;;;0.80;0.80;;;10.30;99.90;;;;;;6252999;23;20567;-80
2023/10/17 09:37:43;;;;;;;1.02;1.02;;;10.30;99.90;;;;;;6259339;23;20168;-81
2023/10/17 09:40:18;;;;;;;1.40;1.30;;;10.00;99.90;;;;;;6257465;23;20176;-79
2023/10/17 09:42:45;;;;;;;1.10;1.10;;;10.20;99.90;;;;;;6231934;23;20262;-79
2023/10/17 09:45:14;;;;;;;2.78;2.58;;;10.40;99.90;;;;;;6255314;23;20183;-80
2023/10/17 09:48:04;;;;;;;1.33;1.33;;;10.70;99.90;;;;;;6252833;23;20230;-80
2023/10/17 09:50:35;;;;;;;0.90;0.90;;;10.50;99.90;;;;;;6252591;23;20172;-81
2023/10/17 09:53:28;;;;;;;1.65;1.55;;;10.50;99.90;;;;;;6252157;23;20180;-79
2023/10/17 09:55:58;;;;;;;1.75;1.67;;;11.00;99.90;;;;;;6251299;23;20168;-80
2023/10/17 09:58:28;;;;;;;1.08;1.05;;;11.30;99.90;;;;;;6249516;23;20183;-79
2023/10/17 10:01:04;;;;;;;0.93;0.93;;;11.70;99.90;;;;;;6222580;23;20215;-79
2023/10/17 10:03:35;;;;;;;1.58;1.58;;;11.30;99.90;;;;;;6249817;23;20167;-79
2023/10/17 10:06:30;;;;;;;1.35;1.35;;;11.50;99.90;;;;;;6251771;23;20175;-78
2023/10/17 10:09:13;;;;;;;1.15;1.15;;;11.20;99.90;;;;;;6252787;23;20235;-81
2023/10/17 10:11:53;;;;;;;1.85;1.77;;;10.80;99.90;;;;;;6252321;23;20172;-78
2023/10/17 10:14:26;;;;;;;1.08;1.08;;;10.80;99.90;;;;;;6251248;23;20203;-80
2023/10/17 10:17:03;;;;;;;0.85;0.85;;;10.80;99.90;;;;;;6247904;23;20183;-77
2023/10/17 10:19:43;;;;;;;2.25;2.15;;;10.50;99.90;;;;;;6222340;23;20470;-78
2023/10/17 10:22:16;;;;;;;0.73;0.73;;;10.90;99.90;;;;;;6222107;23;20258;-78
2023/10/17 10:24:46;;;;;;;1.00;1.00;;;10.80;99.90;;;;;;6248233;23;20183;-80
2023/10/17 10:27:19;;;;;;;1.08;1.08;;;11.00;99.90;;;;;;6248779;23;20167;-79
2023/10/17 10:29:55;;;;;;;1.08;1.08;;;11.40;99.90;;;;;;6248028;23;20590;-79
2023/10/17 10:32:29;;;;;;;1.13;1.02;;;11.80;99.90;;;;;;6254106;23;20194;-82
2023/10/17 10:34:56;;;;;;;5.45;3.05;;;11.60;99.90;;;;;;6259016;23;20164;-79
2023/10/17 10:37:23;;;;;;;6.75;2.15;;;11.20;99.90;;;;;;6224600;23;20495;-80
2023/10/17 10:40:22;;;;;;;1.20;1.20;;;11.20;99.90;;;;;;6248625;23;20428;-78
2023/10/17 10:42:57;;;;;;;1.50;1.50;;;11.20;99.90;;;;;;6248210;23;20243;-78
2023/10/17 10:45:42;;;;;;;1.75;1.65;;;11.30;99.90;;;;;;6247948;23;20187;-77
2023/10/17 10:48:14;;;;;;;1.42;1.33;;;10.90;99.90;;;;;;6248473;23;20643;-78
2023/10/17 10:50:47;;;;;;;1.25;1.25;;;11.20;99.90;;;;;;6247630;23;20166;-80
2023/10/17 10:53:23;;;;;;;2.28;2.17;;;11.40;99.90;;;;;;6247078;23;20160;-79
2023/10/17 10:56:13;;;;;;;0.70;0.70;;;11.20;99.90;;;;;;6248012;23;20174;-78
2023/10/17 10:58:47;;;;;;;0.60;0.60;;;11.60;99.90;;;;;;6247724;23;20171;-77
2023/10/17 11:01:15;;;;;;;1.35;1.25;;;11.70;99.90;;;;;;6247882;23;20163;-78
2023/10/17 11:03:44;;;;;;;0.95;0.95;;;11.90;99.90;;;;;;6247515;23;20773;-79
2023/10/17 11:06:19;;;;;;;0.60;0.60;;;11.90;99.90;;;;;;6248072;23;20360;-78
2023/10/17 11:08:47;;;;;;;0.75;0.75;;;11.80;99.90;;;;;;6249096;23;20160;-79
2023/10/17 11:11:17;;;;;;;2.08;1.98;;;11.90;99.90;;;;;;6223213;23;20175;-78
2023/10/17 11:13:50;;;;;;;1.42;1.33;;;12.10;99.90;;;;;;6249688;23;20530;-77
2023/10/17 11:16:25;;;;;;;0.70;0.70;;;11.80;99.90;;;;;;6223378;23;20219;-78
2023/10/17 11:18:53;;;;;;;0.70;0.70;;;11.70;99.90;;;;;;6249311;23;20175;-78
2023/10/17 11:21:22;;;;;;;0.85;0.85;;;11.80;99.90;;;;;;6248260;23;20194;-78
2023/10/17 11:24:04;;;;;;;1.08;1.08;;;11.30;99.90;;;;;;6249168;23;20238;-81
2023/10/17 11:26:35;;;;;;;2.35;2.20;;;11.50;99.90;;;;;;6248975;23;20223;-77
2023/10/17 11:29:03;;;;;;;0.85;0.85;;;11.50;99.90;;;;;;6248089;23;20179;-78
2023/10/17 11:31:31;;;;;;;4.88;2.47;;;11.40;99.90;;;;;;6249030;23;20187;-78
2023/10/17 11:34:04;;;;;;;0.70;0.70;;;11.60;99.90;;;;;;6257154;23;20181;-79
2023/10/17 11:36:54;;;;;;;3.53;1.55;;;11.60;99.90;;;;;;6256036;23;20190;-79
2023/10/17 11:39:26;;;;;;;2.25;1.65;;;11.60;99.90;;;;;;6250168;23;20191;-79
2023/10/17 11:41:55;;;;;;;2.20;2.10;;;11.70;99.90;;;;;;6251066;23;20175;-78
2023/10/17 11:44:24;;;;;;;2.45;2.35;;;11.70;99.90;;;;;;6224801;23;20376;-79
2023/10/17 11:47:02;;;;;;;1.55;1.45;;;11.50;99.90;;;;;;6250089;23;20203;-77
2023/10/17 11:49:31;;;;;;;1.27;1.17;;;11.50;99.90;;;;;;6222238;23;20258;-78
2023/10/17 11:51:59;;;;;;;0.75;0.75;;;11.40;99.90;;;;;;6249583;23;20184;-78
2023/10/17 11:54:30;;;;;;;0.90;0.90;;;11.60;99.90;;;;;;6249249;23;20523;-78
2023/10/17 11:57:12;;;;;;;0.70;0.70;;;11.40;99.90;;;;;;6250047;23;20194;-77
2023/10/17 12:00:19;;;;;;;0.90;0.90;;;11.30;99.90;;;;;;6249491;23;20255;-78
2023/10/17 12:02:48;;;;;;;0.93;0.93;;;11.30;99.90;;;;;;6249281;23;20230;-78
2023/10/17 12:05:21;;;;;;;1.20;1.20;;;11.20;99.90;;;;;;6248914;23;20426;-77
2023/10/17 12:07:50;;;;;;;0.68;0.68;;;11.30;99.90;;;;;;6249874;23;20223;-79
2023/10/17 12:10:19;;;;;;;1.00;1.00;;;11.00;99.90;;;;;;6225869;23;20211;-79
2023/10/17 12:12:47;;;;;;;0.80;0.80;;;11.20;99.90;;;;;;6253745;23;20168;-79
2023/10/17 12:15:18;;;;;;;0.73;0.73;;;11.40;99.90;;;;;;6251960;23;20235;-78
2023/10/17 12:17:45;;;;;;;0.60;0.60;;;11.20;99.90;;;;;;6251920;23;20188;-79
2023/10/17 12:20:13;;;;;;;0.70;0.70;;;11.50;99.90;;;;;;6251361;23;20211;-79
2023/10/17 12:22:40;;;;;;;1.10;1.10;;;11.50;99.90;;;;;;6252272;23;20176;-79
2023/10/17 12:25:16;;;;;;;0.60;0.60;;;11.20;99.90;;;;;;6251187;23;20270;-78
2023/10/17 12:27:49;;;;;;;0.70;0.70;;;11.20;99.90;;;;;;6228492;23;20172;-82
2023/10/17 12:30:22;;;;;;;0.60;0.60;;;11.20;99.90;;;;;;6252316;23;20171;-79
2023/10/17 12:32:50;;;;;;;1.67;1.60;;;11.00;99.90;;;;;;6251342;23;20167;-78
2023/10/17 12:35:21;;;;;;;0.60;0.60;;;10.90;99.90;;;;;;6249579;23;20424;-80
2023/10/17 12:37:52;;;;;;;0.70;0.70;;;10.90;99.90;;;;;;6222130;23;20171;-78
2023/10/17 12:40:21;;;;;;;2.03;1.92;;;10.90;99.90;;;;;;6249082;23;20202;-77
2023/10/17 12:42:50;;;;;;;6.57;3.25;;;10.80;99.90;;;;;;6248482;23;20245;-78
2023/10/17 12:45:19;;;;;;;0.85;0.85;;;10.60;99.90;;;;;;6247254;23;20210;-78
2023/10/17 12:47:47;;;;;;;0.60;0.60;;;10.80;99.90;;;;;;6248083;23;20183;-77
2023/10/17 12:50:15;;;;;;;1.70;1.60;;;10.90;99.90;;;;;;6249415;23;20183;-77
2023/10/17 12:52:42;;;;;;;0.95;0.90;;;10.90;99.90;;;;;;6250559;23;20222;-79
2023/10/17 12:55:11;;;;;;;0.70;0.70;;;11.00;99.90;;;;;;6261201;23;20464;-77
2023/10/17 12:57:39;;;;;;;0.80;0.80;;;11.00;99.90;;;;;;6258501;23;20235;-80
2023/10/17 13:00:12;;;;;;;0.60;0.60;;;11.00;99.90;;;;;;6252359;23;20207;-80
2023/10/17 13:02:41;;;;;;;0.95;0.95;;;11.10;99.90;;;;;;6227076;23;20168;-82
2023/10/17 13:05:10;;;;;;;0.60;0.60;;;11.00;99.90;;;;;;6249363;23;20372;-82
2023/10/17 13:07:39;;;;;;;0.95;0.95;;;10.90;99.90;;;;;;6222223;23;20195;-79
2023/10/17 13:10:07;;;;;;;1.23;1.23;;;10.90;99.90;;;;;;6249102;23;20444;-78
2023/10/17 13:12:35;;;;;;;0.82;0.82;;;10.90;99.90;;;;;;6250262;23;20264;-78
2023/10/17 13:15:06;;;;;;;1.02;1.02;;;11.00;99.90;;;;;;6221094;23;20183;-78
2023/10/17 13:17:33;;;;;;;0.80;0.80;;;10.80;99.90;;;;;;6249927;23;20180;-78
2023/10/17 13:20:07;;;;;;;1.33;1.33;;;10.80;99.90;;;;;;6249193;23;20204;-78
2023/10/17 13:23:03;;;;;;;1.52;1.42;;;10.80;99.90;;;;;;6250074;23;20183;-79
2023/10/17 13:25:40;;;;;;;1.70;1.60;;;10.90;99.90;;;;;;6224712;23;20304;-79
2023/10/17 13:28:07;;;;;;;0.65;0.65;;;10.90;99.90;;;;;;6263229;23;20179;-78
2023/10/17 13:30:34;;;;;;;1.40;1.40;;;11.00;99.90;;;;;;6267380;23;20180;-79
2023/10/17 13:33:01;;;;;;;0.80;0.80;;;10.90;99.90;;;;;;6238856;23;20204;-78
2023/10/17 13:35:31;;;;;;;1.52;1.42;;;10.90;99.90;;;;;;6259431;23;20211;-78
2023/10/17 13:37:58;;;;;;;0.93;0.93;;;10.90;99.90;;;;;;6222336;23;20212;-80
2023/10/17 13:40:32;;;;;;;2.63;2.53;;;11.20;99.90;;;;;;6222364;23;20226;-77
2023/10/17 13:43:00;;;;;;;0.93;0.93;;;11.10;99.90;;;;;;6245439;23;20215;-78
2023/10/17 13:45:28;;;;;;;0.93;0.80;;;10.90;99.90;;;;;;6247383;23;20452;-77
2023/10/17 13:47:56;;;;;;;0.60;0.60;;;11.10;99.90;;;;;;6221937;23;20190;-78
2023/10/17 13:50:25;;;;;;;1.27;1.27;;;10.90;99.90;;;;;;6221386;23;20254;-77
2023/10/17 13:52:54;;;;;;;2.28;2.08;;;10.80;99.90;;;;;;6248464;23;20293;-77
2023/10/17 13:55:25;;;;;;;1.58;1.48;;;10.70;99.90;;;;;;6247359;23;20184;-79
2023/10/17 13:58:00;;;;;;;1.02;1.02;;;10.70;99.90;;;;;;6248141;23;20164;-78
2023/10/17 14:00:43;;;;;;;2.15;2.05;;;10.60;99.90;;;;;;6224767;23;20202;-79
2023/10/17 14:03:12;;;;;;;0.60;0.60;;;10.80;99.90;;;;;;6247388;23;20220;-78
2023/10/17 14:05:47;;;;;;;3.45;3.15;;;10.50;99.90;;;;;;6247531;23;20175;-79
2023/10/17 14:08:15;;;;;;;1.08;1.08;;;10.80;99.90;;;;;;6248045;23;20387;-80
2023/10/17 14:10:46;;;;;;;3.47;2.88;;;10.80;99.90;;;;;;6248046;23;20191;-78
2023/10/17 14:13:16;;;;;;;1.00;1.00;;;10.80;99.90;;;;;;6249250;23;20179;-81
2023/10/17 14:15:47;;;;;;;1.35;1.20;;;10.60;99.90;;;;;;6223481;23;20168;-78
2023/10/17 14:18:16;;;;;;;1.05;1.05;;;10.70;99.90;;;;;;6250171;23;20229;-77
2023/10/17 14:21:04;;;;;;;0.60;0.60;;;10.70;99.90;;;;;;6249683;23;20306;-78
2023/10/17 14:23:45;;;;;;;1.33;1.33;;;10.60;99.90;;;;;;6249886;23;20482;-80
2023/10/17 14:26:15;;;;;;;0.80;0.80;;;10.60;99.90;;;;;;6250353;23;20197;-79
2023/10/17 14:28:42;;;;;;;0.80;0.80;;;10.60;99.90;;;;;;6248322;23;20221;-78
2023/10/17 14:31:09;;;;;;;2.50;2.25;;;10.50;99.90;;;;;;6246859;23;20551;-83
2023/10/17 14:33:37;;;;;;;1.20;1.10;;;10.50;99.90;;;;;;6247370;23;20511;-76
2023/10/17 14:36:05;;;;;;;1.52;1.45;;;10.60;99.90;;;;;;6246725;23;20740;-78
2023/10/17 14:38:32;;;;;;;4.80;1.63;;;10.50;99.90;;;;;;6219147;23;20183;-78
2023/10/17 14:41:01;;;;;;;1.35;1.35;;;10.50;99.90;;;;;;6246704;23;20534;-77
2023/10/17 14:43:27;;;;;;;0.60;0.60;;;10.40;99.90;;;;;;6246058;23;20515;-75
2023/10/17 14:45:55;;;;;;;1.60;1.50;;;10.30;99.90;;;;;;6246780;23;20210;-77
2023/10/17 14:48:21;;;;;;;0.90;0.90;;;10.20;99.90;;;;;;6246498;23;20176;-78
2023/10/17 14:50:49;;;;;;;0.70;0.70;;;10.10;99.90;;;;;;6247953;23;20669;-78
2023/10/17 14:53:19;;;;;;;1.00;0.98;;;10.20;99.90;;;;;;6247928;23;20226;-77
2023/10/17 14:55:57;;;;;;;1.48;1.38;;;10.20;99.90;;;;;;6248702;23;20226;-77
2023/10/17 14:58:24;;;;;;;0.70;0.70;;;10.20;99.90;;;;;;6248383;23;20200;-77
2023/10/17 15:00:55;;;;;;;13.07;1.55;;;10.10;99.90;;;;;;6247514;23;20539;-77